createdAt,value
2023-05-19T00:01:21.605Z,2.40
2023-05-19T00:03:55.966Z,2.70
2023-05-19T00:06:25.413Z,3.70
2023-05-19T00:08:57.773Z,2.38
2023-05-19T00:11:26.975Z,2.28
2023-05-19T00:13:58.736Z,1.98
2023-05-19T00:16:27.588Z,1.83
2023-05-19T00:18:54.794Z,4.50
2023-05-19T00:21:22.046Z,2.50
2023-05-19T00:23:49.222Z,2.70
2023-05-19T00:26:16.488Z,6.45
2023-05-19T00:28:53.368Z,2.00
2023-05-19T00:31:21.079Z,1.90
2023-05-19T00:33:48.101Z,2.88
2023-05-19T00:36:15.597Z,3.55
2023-05-19T00:38:42.581Z,1.95
2023-05-19T00:41:11.023Z,3.05
2023-05-19T00:43:37.960Z,1.88
2023-05-19T00:46:05.330Z,2.40
2023-05-19T00:48:32.338Z,3.03
2023-05-19T00:51:04.479Z,1.58
2023-05-19T00:53:32.837Z,3.15
2023-05-19T00:56:00.912Z,2.22
2023-05-19T00:58:30.401Z,1.75
2023-05-19T01:01:04.195Z,1.35
2023-05-19T01:03:35.227Z,1.67
2023-05-19T01:06:05.941Z,1.58
2023-05-19T01:08:34.131Z,2.58
2023-05-19T01:11:01.730Z,1.27
2023-05-19T01:13:29.409Z,1.70
2023-05-19T01:16:13.228Z,2.25
2023-05-19T01:18:56.483Z,2.38
2023-05-19T01:21:44.434Z,1.58
2023-05-19T01:24:30.617Z,2.00
2023-05-19T01:27:04.163Z,1.30
2023-05-19T01:29:58.963Z,1.40
2023-05-19T01:32:27.123Z,1.88
2023-05-19T01:34:55.758Z,3.10
2023-05-19T01:37:24.301Z,2.95
2023-05-19T01:39:51.668Z,1.02
2023-05-19T01:42:20.793Z,1.70
2023-05-19T01:44:47.966Z,1.90
2023-05-19T01:47:15.310Z,2.17
2023-05-19T01:49:42.817Z,1.42
2023-05-19T01:52:10.304Z,1.25
2023-05-19T01:54:37.304Z,3.05
2023-05-19T01:57:17.459Z,1.88
2023-05-19T02:00:05.722Z,1.40
2023-05-19T02:03:07.914Z,2.70
2023-05-19T02:05:58.562Z,1.50
2023-05-19T02:08:50.636Z,1.17
2023-05-19T02:11:29.174Z,1.27
2023-05-19T02:14:01.596Z,1.60
2023-05-19T02:16:29.330Z,1.15
2023-05-19T02:18:57.378Z,1.52
2023-05-19T02:21:24.519Z,1.02
2023-05-19T02:23:51.878Z,2.15
2023-05-19T02:26:20.178Z,1.85
2023-05-19T02:28:47.495Z,1.35
2023-05-19T02:31:14.415Z,1.42
2023-05-19T02:33:43.100Z,1.88
2023-05-19T02:36:10.201Z,3.03
2023-05-19T02:38:37.729Z,1.30
2023-05-19T02:41:04.788Z,1.73
2023-05-19T02:43:31.975Z,1.08
2023-05-19T02:45:59.058Z,1.42
2023-05-19T02:48:27.205Z,1.27
2023-05-19T02:50:54.275Z,1.05
2023-05-19T02:53:21.505Z,1.90
2023-05-19T02:55:48.406Z,1.75
2023-05-19T02:58:15.705Z,1.20
2023-05-19T03:00:45.178Z,2.30
2023-05-19T03:03:14.010Z,1.10
2023-05-19T03:05:41.592Z,1.25
2023-05-19T03:08:09.362Z,1.30
2023-05-19T03:10:36.518Z,1.23
2023-05-19T03:13:04.164Z,1.50
2023-05-19T03:15:31.245Z,1.92
2023-05-19T03:17:58.758Z,1.02
2023-05-19T03:20:25.796Z,1.77
2023-05-19T03:22:53.122Z,0.95
2023-05-19T03:25:20.164Z,1.25
2023-05-19T03:27:47.410Z,2.40
2023-05-19T03:30:14.912Z,1.15
2023-05-19T03:33:01.799Z,1.40
2023-05-19T03:35:29.232Z,1.40
2023-05-19T03:37:56.774Z,2.58
2023-05-19T03:40:23.774Z,1.15
2023-05-19T03:42:56.839Z,2.05
2023-05-19T03:45:23.986Z,1.40
2023-05-19T03:47:52.973Z,0.95
2023-05-19T03:50:38.649Z,1.95
2023-05-19T03:53:16.208Z,1.55
2023-05-19T03:55:44.559Z,0.93
2023-05-19T03:58:14.651Z,1.73
2023-05-19T04:00:42.228Z,1.10
2023-05-19T04:03:09.805Z,1.73
2023-05-19T04:05:36.884Z,1.60
2023-05-19T04:08:04.242Z,1.17
2023-05-19T04:10:31.447Z,2.30
2023-05-19T04:12:59.114Z,1.90
2023-05-19T04:15:26.516Z,0.68
2023-05-19T04:17:53.890Z,1.10
2023-05-19T04:20:21.109Z,2.20
2023-05-19T04:22:48.831Z,1.83
2023-05-19T04:25:15.878Z,1.67
2023-05-19T04:27:43.166Z,0.93
2023-05-19T04:30:10.927Z,0.90
2023-05-19T04:32:39.724Z,1.88
2023-05-19T04:35:07.287Z,1.40
2023-05-19T04:37:37.486Z,1.00
2023-05-19T04:40:06.482Z,2.83
2023-05-19T04:42:34.064Z,0.80
2023-05-19T04:45:03.293Z,1.42
2023-05-19T04:47:38.295Z,1.88
2023-05-19T04:50:07.328Z,1.77
2023-05-19T04:52:35.157Z,2.13
2023-05-19T04:55:04.337Z,1.73
2023-05-19T04:57:31.846Z,2.25
2023-05-19T05:00:02.364Z,2.03
2023-05-19T05:02:37.540Z,1.25
2023-05-19T05:05:05.502Z,1.17
2023-05-19T05:07:33.058Z,1.15
2023-05-19T05:10:01.215Z,1.42
2023-05-19T05:12:29.201Z,2.28
2023-05-19T05:14:56.555Z,1.30
2023-05-19T05:17:25.685Z,1.25
2023-05-19T05:19:53.124Z,1.80
2023-05-19T05:22:21.479Z,1.40
2023-05-19T05:24:49.444Z,1.33
2023-05-19T05:27:16.761Z,2.10
2023-05-19T05:29:43.885Z,1.58
2023-05-19T05:32:11.220Z,2.45
2023-05-19T05:34:39.919Z,2.58
2023-05-19T05:37:07.329Z,2.05
2023-05-19T05:39:35.174Z,2.47
2023-05-19T05:42:02.741Z,1.92
2023-05-19T05:44:30.493Z,1.38
2023-05-19T05:46:58.667Z,2.08
2023-05-19T05:49:25.886Z,1.85
2023-05-19T05:52:05.522Z,1.33
2023-05-19T05:54:38.755Z,1.35
2023-05-19T05:57:08.053Z,2.20
2023-05-19T05:59:35.036Z,3.42
2023-05-19T06:02:02.735Z,5.65
2023-05-19T06:04:31.110Z,3.90
2023-05-19T06:07:01.290Z,3.38
2023-05-19T06:09:32.990Z,4.10
2023-05-19T06:12:01.012Z,3.67
2023-05-19T06:14:32.643Z,3.00
2023-05-19T06:17:12.286Z,3.60
2023-05-19T06:19:39.520Z,3.35
2023-05-19T06:22:07.550Z,5.13
2023-05-19T06:24:34.712Z,2.65
2023-05-19T06:27:02.482Z,4.75
2023-05-19T06:29:29.556Z,3.05
2023-05-19T06:32:00.957Z,8.52
2023-05-19T06:34:28.057Z,8.15
2023-05-19T06:36:55.607Z,5.68
2023-05-19T06:39:23.147Z,3.65
2023-05-19T06:41:50.758Z,4.68
2023-05-19T06:44:37.612Z,3.03
2023-05-19T06:47:09.747Z,5.22
2023-05-19T06:49:37.174Z,8.23
2023-05-19T06:52:05.090Z,4.43
2023-05-19T06:54:32.076Z,4.28
2023-05-19T06:56:59.441Z,3.78
2023-05-19T06:59:26.402Z,4.53
2023-05-19T07:01:54.092Z,3.90
2023-05-19T07:04:21.237Z,5.13
2023-05-19T07:06:50.306Z,6.50
2023-05-19T07:09:17.882Z,9.52
2023-05-19T07:11:47.471Z,5.90
2023-05-19T07:14:14.598Z,6.45
2023-05-19T07:16:41.960Z,6.60
2023-05-19T07:19:09.092Z,4.72
2023-05-19T07:21:36.516Z,8.10
2023-05-19T07:24:03.647Z,6.05
2023-05-19T07:26:31.223Z,6.15
2023-05-19T07:28:58.191Z,8.77
2023-05-19T07:31:25.951Z,6.15
2023-05-19T07:33:54.587Z,7.22
2023-05-19T07:36:22.412Z,7.22
2023-05-19T07:38:49.560Z,6.50
2023-05-19T07:41:17.027Z,6.93
2023-05-19T07:43:44.116Z,5.13
2023-05-19T07:46:11.416Z,8.15
2023-05-19T07:48:38.573Z,6.13
2023-05-19T07:51:06.044Z,6.25
2023-05-19T07:53:33.049Z,6.45
2023-05-19T07:56:00.326Z,6.65
2023-05-19T07:58:27.330Z,4.95
2023-05-19T08:00:57.740Z,5.40
2023-05-19T08:03:25.785Z,7.32
2023-05-19T08:05:53.196Z,6.05
2023-05-19T08:08:20.257Z,6.88
2023-05-19T08:10:47.580Z,6.93
2023-05-19T08:13:14.582Z,6.75
2023-05-19T08:15:42.874Z,6.35
2023-05-19T08:18:09.976Z,5.93
2023-05-19T08:20:37.644Z,6.53
2023-05-19T08:23:04.692Z,5.13
2023-05-19T08:25:32.216Z,9.05
2023-05-19T08:27:59.126Z,6.10
2023-05-19T08:30:26.436Z,7.53
2023-05-19T08:32:53.406Z,10.07
2023-05-19T08:35:20.896Z,10.90
2023-05-19T08:37:47.841Z,7.95
2023-05-19T08:40:17.624Z,11.80
2023-05-19T08:42:45.982Z,7.32
2023-05-19T08:45:13.824Z,7.88
2023-05-19T08:47:46.321Z,8.45
2023-05-19T08:50:17.566Z,8.63
2023-05-19T08:52:57.837Z,9.32
2023-05-19T08:55:37.197Z,9.38
2023-05-19T08:58:04.806Z,5.25
2023-05-19T09:00:33.183Z,7.97
2023-05-19T09:03:18.256Z,8.15
2023-05-19T09:05:50.879Z,8.93
2023-05-19T09:08:18.455Z,11.65
2023-05-19T09:10:45.695Z,11.68
2023-05-19T09:13:12.651Z,9.18
2023-05-19T09:15:41.362Z,7.20
2023-05-19T09:18:13.349Z,8.90
2023-05-19T09:20:42.844Z,9.68
2023-05-19T09:23:16.870Z,9.60
2023-05-19T09:25:51.596Z,10.40
2023-05-19T09:28:29.567Z,9.65
2023-05-19T09:31:00.188Z,7.50
2023-05-19T09:33:28.372Z,10.00
2023-05-19T09:35:59.075Z,8.35
2023-05-19T09:38:27.056Z,8.40
2023-05-19T09:40:59.172Z,6.65
2023-05-19T09:43:30.099Z,9.38
2023-05-19T09:46:07.575Z,6.28
2023-05-19T09:48:36.618Z,6.68
2023-05-19T09:51:08.316Z,6.75
2023-05-19T09:53:35.425Z,7.70
2023-05-19T09:56:03.673Z,7.35
2023-05-19T09:58:37.104Z,9.57
2023-05-19T10:01:05.155Z,7.72
2023-05-19T10:03:33.786Z,6.45
2023-05-19T10:06:01.594Z,6.90
2023-05-19T10:08:30.746Z,8.20
2023-05-19T10:10:58.542Z,6.40
2023-05-19T10:13:25.934Z,10.07
2023-05-19T10:15:58.937Z,9.30
2023-05-19T10:18:27.921Z,7.50
2023-05-19T10:20:57.814Z,5.65
2023-05-19T10:23:25.602Z,7.25
2023-05-19T10:25:54.965Z,8.77
2023-05-19T10:28:25.342Z,7.70
2023-05-19T10:30:54.932Z,7.95
2023-05-19T10:33:29.885Z,7.93
2023-05-19T10:36:48.118Z,6.47
2023-05-19T10:39:17.143Z,9.63
2023-05-19T10:41:48.522Z,8.48
2023-05-19T10:44:35.448Z,7.90
2023-05-19T10:47:02.897Z,5.35
2023-05-19T10:49:35.597Z,6.20
2023-05-19T10:52:03.112Z,9.40
2023-05-19T10:54:46.796Z,7.32
2023-05-19T10:57:32.050Z,8.48
2023-05-19T11:00:09.962Z,9.80
2023-05-19T11:02:41.954Z,10.02
2023-05-19T11:05:09.408Z,6.63
2023-05-19T11:07:36.861Z,10.55
2023-05-19T11:10:07.795Z,8.25
2023-05-19T11:12:43.084Z,7.32
2023-05-19T11:15:16.873Z,6.38
2023-05-19T11:17:48.950Z,6.07
2023-05-19T11:20:25.746Z,8.35
2023-05-19T11:23:06.089Z,9.63
2023-05-19T11:25:45.380Z,6.80
2023-05-19T11:28:13.966Z,5.80
2023-05-19T11:30:45.910Z,7.32
2023-05-19T11:33:14.036Z,6.55
2023-05-19T11:35:42.268Z,9.55
2023-05-19T11:38:11.226Z,8.15
2023-05-19T11:40:38.733Z,10.45
2023-05-19T11:43:06.483Z,10.13
2023-05-19T11:45:34.796Z,8.60
2023-05-19T11:48:05.529Z,6.85
2023-05-19T11:50:33.338Z,8.23
2023-05-19T11:53:01.402Z,7.10
2023-05-19T11:55:29.030Z,8.00
2023-05-19T12:00:31.035Z,6.35
2023-05-19T12:02:58.511Z,9.18
2023-05-19T12:05:26.655Z,9.30
2023-05-19T12:07:54.185Z,9.32
2023-05-19T12:10:25.332Z,8.13
2023-05-19T12:12:53.767Z,8.02
2023-05-19T12:15:24.420Z,6.88
2023-05-19T12:18:01.287Z,7.10
2023-05-19T12:20:29.449Z,9.55
2023-05-19T12:22:56.906Z,8.38
2023-05-19T12:25:24.728Z,6.55
2023-05-19T12:27:56.173Z,7.07
2023-05-19T12:30:31.808Z,8.30
2023-05-19T12:32:59.712Z,6.25
2023-05-19T12:35:34.065Z,7.15
2023-05-19T12:38:05.720Z,6.78
2023-05-19T12:40:37.310Z,5.38
2023-05-19T12:43:05.810Z,7.50
2023-05-19T12:45:36.870Z,6.20
2023-05-19T12:48:06.600Z,8.02
2023-05-19T12:50:34.739Z,6.10
2023-05-19T12:53:02.676Z,9.18
2023-05-19T12:55:30.094Z,5.13
2023-05-19T12:57:58.617Z,6.82
2023-05-19T13:00:29.306Z,5.28
2023-05-19T13:02:56.947Z,8.40
2023-05-19T13:05:24.703Z,6.60
2023-05-19T13:08:05.706Z,5.50
2023-05-19T13:10:34.974Z,7.72
2023-05-19T13:13:04.011Z,4.70
2023-05-19T13:15:36.370Z,6.50
2023-05-19T13:18:09.832Z,7.53
2023-05-19T13:20:37.953Z,5.40
2023-05-19T13:23:05.922Z,6.30
2023-05-19T13:25:34.304Z,5.97
2023-05-19T13:28:05.568Z,6.60
2023-05-19T13:30:38.187Z,6.40
2023-05-19T13:33:05.949Z,7.70
2023-05-19T13:35:37.382Z,8.25
2023-05-19T13:38:12.194Z,5.60
2023-05-19T13:40:40.106Z,7.40
2023-05-19T13:43:08.744Z,7.85
2023-05-19T13:45:36.013Z,6.70
2023-05-19T13:48:03.545Z,6.70
2023-05-19T13:50:30.664Z,7.20
2023-05-19T13:52:58.017Z,5.90
2023-05-19T13:55:27.270Z,6.60
2023-05-19T13:57:54.603Z,7.25
2023-05-19T14:00:21.853Z,6.43
2023-05-19T14:02:49.141Z,7.45
2023-05-19T14:05:16.919Z,7.25
2023-05-19T14:07:44.753Z,8.88
2023-05-19T14:10:11.970Z,7.80
2023-05-19T14:12:51.734Z,7.70
2023-05-19T14:15:27.420Z,7.95
2023-05-19T14:17:54.861Z,8.13
2023-05-19T14:20:21.973Z,7.13
2023-05-19T14:22:49.608Z,6.93
2023-05-19T14:25:16.725Z,10.55
2023-05-19T14:27:44.276Z,8.13
2023-05-19T14:30:11.450Z,8.27
2023-05-19T14:32:38.877Z,10.70
2023-05-19T14:35:06.473Z,8.50
2023-05-19T14:37:34.091Z,7.47
2023-05-19T14:40:01.090Z,8.07
2023-05-19T14:42:28.494Z,8.20
2023-05-19T14:44:56.010Z,9.02
2023-05-19T14:47:24.353Z,7.05
2023-05-19T14:49:52.187Z,9.00
2023-05-19T14:52:19.909Z,8.40
2023-05-19T14:54:47.174Z,9.43
2023-05-19T14:57:14.853Z,12.00
2023-05-19T14:59:41.994Z,8.32
2023-05-19T15:02:09.740Z,12.48
2023-05-19T15:04:36.673Z,8.77
2023-05-19T15:09:34.143Z,9.75
2023-05-19T15:12:01.526Z,6.95
2023-05-19T15:14:30.620Z,9.05
2023-05-19T15:16:59.161Z,8.27
2023-05-19T15:19:26.864Z,9.75
2023-05-19T15:21:54.298Z,8.50
2023-05-19T15:24:21.277Z,7.50
2023-05-19T15:26:48.949Z,9.65
2023-05-19T15:29:16.521Z,9.43
2023-05-19T15:31:43.911Z,8.75
2023-05-19T15:34:10.979Z,8.60
2023-05-19T15:36:38.269Z,8.32
2023-05-19T15:39:06.524Z,6.88
2023-05-19T15:41:33.830Z,10.13
2023-05-19T15:44:01.061Z,7.60
2023-05-19T15:46:29.174Z,6.70
2023-05-19T15:48:56.482Z,8.77
2023-05-19T15:51:23.940Z,9.13
2023-05-19T15:53:51.074Z,8.20
2023-05-19T15:56:19.455Z,8.90
2023-05-19T15:58:46.377Z,7.57
2023-05-19T16:01:14.428Z,10.55
2023-05-19T16:03:42.072Z,9.50
2023-05-19T16:06:09.667Z,8.32
2023-05-19T16:08:37.974Z,8.93
2023-05-19T16:11:05.686Z,8.10
2023-05-19T16:13:34.036Z,8.77
2023-05-19T16:16:01.727Z,8.82
2023-05-19T16:18:29.722Z,9.02
2023-05-19T16:20:57.315Z,10.27
2023-05-19T16:23:24.911Z,11.07
2023-05-19T16:25:53.348Z,9.48
2023-05-19T16:28:22.571Z,7.95
2023-05-19T16:30:52.241Z,7.95
2023-05-19T16:33:19.238Z,8.07
2023-05-19T16:35:47.017Z,10.50
2023-05-19T16:38:14.119Z,9.20
2023-05-19T16:40:41.543Z,8.95
2023-05-19T16:43:08.569Z,9.85
2023-05-19T16:45:36.487Z,9.07
2023-05-19T16:48:03.801Z,9.98
2023-05-19T16:50:31.186Z,9.05
2023-05-19T16:52:59.199Z,8.15
2023-05-19T16:55:26.884Z,9.20
2023-05-19T16:57:53.848Z,9.52
2023-05-19T17:00:21.324Z,12.23
2023-05-19T17:02:48.333Z,10.80
2023-05-19T17:05:15.982Z,10.02
2023-05-19T17:07:42.951Z,9.77
2023-05-19T17:10:10.567Z,9.07
2023-05-19T17:12:37.703Z,10.73
2023-05-19T17:15:05.604Z,9.73
2023-05-19T17:17:32.603Z,11.18
2023-05-19T17:20:00.046Z,9.10
2023-05-19T17:22:28.760Z,12.43
2023-05-19T17:24:57.571Z,11.25
2023-05-19T17:27:24.676Z,9.57
2023-05-19T17:29:51.939Z,11.35
2023-05-19T17:32:22.136Z,10.57
2023-05-19T17:34:49.625Z,10.77
2023-05-19T17:37:19.086Z,9.65
2023-05-19T17:39:46.334Z,10.98
2023-05-19T17:42:13.256Z,10.73
2023-05-19T17:44:41.431Z,12.05
2023-05-19T17:47:08.436Z,10.10
2023-05-19T17:49:36.088Z,8.32
2023-05-19T17:52:03.485Z,10.38
2023-05-19T17:54:31.017Z,8.57
2023-05-19T17:57:02.094Z,7.93
2023-05-19T17:59:30.325Z,7.00
2023-05-19T18:01:57.685Z,7.65
2023-05-19T18:04:25.566Z,10.73
2023-05-19T18:06:52.907Z,9.75
2023-05-19T18:09:20.629Z,8.32
2023-05-19T18:11:47.791Z,9.93
2023-05-19T18:14:15.002Z,14.35
2023-05-19T18:16:42.158Z,11.45
2023-05-19T18:19:09.593Z,10.05
2023-05-19T18:21:36.608Z,9.80
2023-05-19T18:24:04.490Z,10.10
2023-05-19T18:26:33.095Z,10.02
2023-05-19T18:29:02.823Z,9.95
2023-05-19T18:31:29.890Z,10.85
2023-05-19T18:33:57.081Z,11.30
2023-05-19T18:36:24.060Z,8.82
2023-05-19T18:38:51.351Z,10.32
2023-05-19T18:41:18.598Z,10.65
2023-05-19T18:43:45.814Z,10.02
2023-05-19T18:46:13.620Z,10.05
2023-05-19T18:48:41.167Z,8.30
2023-05-19T18:51:09.003Z,9.80
2023-05-19T18:53:37.061Z,10.88
2023-05-19T18:56:04.289Z,13.25
2023-05-19T18:58:31.973Z,10.60
2023-05-19T19:00:59.202Z,11.00
2023-05-19T19:03:26.649Z,12.02
2023-05-19T19:05:55.268Z,10.63
2023-05-19T19:08:23.183Z,10.73
2023-05-19T19:10:51.562Z,11.93
2023-05-19T19:13:19.124Z,11.77
2023-05-19T19:15:46.196Z,13.52
2023-05-19T19:18:13.607Z,10.85
2023-05-19T19:20:40.595Z,12.65
2023-05-19T19:23:07.915Z,10.10
2023-05-19T19:25:35.075Z,11.95
2023-05-19T19:28:02.445Z,9.10
2023-05-19T19:30:29.558Z,10.15
2023-05-19T19:32:57.088Z,10.32
2023-05-19T19:35:24.120Z,10.55
2023-05-19T19:37:51.868Z,8.43
2023-05-19T19:40:19.000Z,7.70
2023-05-19T19:42:46.764Z,9.38
2023-05-19T19:45:15.714Z,8.48
2023-05-19T19:47:43.466Z,9.45
2023-05-19T19:50:11.567Z,10.35
2023-05-19T19:52:39.463Z,8.45
2023-05-19T19:55:06.992Z,9.50
2023-05-19T19:57:34.416Z,8.07
2023-05-19T20:00:07.930Z,8.65
2023-05-19T20:02:41.023Z,9.25
2023-05-19T20:05:14.023Z,8.95
2023-05-19T20:07:41.425Z,8.57
2023-05-19T20:10:08.832Z,9.50
2023-05-19T20:12:36.136Z,9.82
2023-05-19T20:15:03.203Z,11.13
2023-05-19T20:17:30.815Z,10.80
2023-05-19T20:19:59.054Z,10.15
2023-05-19T20:22:26.369Z,13.25
2023-05-19T20:24:53.401Z,9.32
2023-05-19T20:27:20.824Z,8.65
2023-05-19T20:29:47.756Z,10.68
2023-05-19T20:32:15.067Z,9.75
2023-05-19T20:34:42.302Z,9.75
2023-05-19T20:37:09.818Z,9.80
2023-05-19T20:39:36.795Z,10.27
2023-05-19T20:42:04.302Z,8.25
2023-05-19T20:44:31.284Z,10.52
2023-05-19T20:46:58.743Z,9.95
2023-05-19T20:49:25.792Z,10.48
2023-05-19T20:51:53.079Z,10.43
2023-05-19T20:54:20.444Z,10.85
2023-05-19T20:56:48.173Z,8.63
2023-05-19T20:59:15.139Z,8.60
2023-05-19T21:01:42.486Z,8.38
2023-05-19T21:04:09.655Z,8.80
2023-05-19T21:06:37.022Z,9.40
2023-05-19T21:09:06.707Z,10.73
2023-05-19T21:11:34.419Z,9.25
2023-05-19T21:14:04.198Z,7.38
2023-05-19T21:16:32.211Z,6.93
2023-05-19T21:18:59.544Z,8.48
2023-05-19T21:21:26.870Z,6.97
2023-05-19T21:23:53.886Z,7.22
2023-05-19T21:26:22.127Z,7.18
2023-05-19T21:28:49.021Z,5.38
2023-05-19T21:31:16.662Z,8.57
2023-05-19T21:33:43.669Z,7.07
2023-05-19T21:36:11.048Z,8.23
2023-05-19T21:38:38.100Z,6.65
2023-05-19T21:41:05.464Z,5.95
2023-05-19T21:43:32.380Z,5.90
2023-05-19T21:45:59.716Z,5.15
2023-05-19T21:48:26.707Z,6.53
2023-05-19T21:50:54.683Z,7.28
2023-05-19T21:53:21.787Z,6.97
2023-05-19T21:55:49.139Z,8.45
2023-05-19T21:58:16.344Z,7.60
2023-05-19T22:00:49.094Z,7.63
2023-05-19T22:03:16.345Z,7.82
2023-05-19T22:05:49.093Z,8.68
2023-05-19T22:08:17.224Z,7.13
2023-05-19T22:10:44.950Z,5.80
2023-05-19T22:13:12.709Z,7.03
2023-05-19T22:15:40.365Z,6.07
2023-05-19T22:18:07.457Z,6.03
2023-05-19T22:20:35.595Z,6.47
2023-05-19T22:23:03.724Z,6.82
2023-05-19T22:25:31.025Z,6.22
2023-05-19T22:27:58.114Z,6.25
2023-05-19T22:30:25.857Z,6.75
2023-05-19T22:32:52.959Z,7.63
2023-05-19T22:35:20.316Z,5.75
2023-05-19T22:37:47.194Z,5.20
2023-05-19T22:40:14.762Z,5.97
2023-05-19T22:42:41.737Z,6.32
2023-05-19T22:45:09.666Z,5.43
2023-05-19T22:47:36.749Z,7.72
2023-05-19T22:50:04.205Z,6.32
2023-05-19T22:52:31.129Z,5.53
2023-05-19T22:54:58.506Z,5.78
2023-05-19T22:57:25.550Z,5.25
2023-05-19T22:59:52.987Z,4.97
2023-05-19T23:02:19.890Z,4.85
2023-05-19T23:04:47.138Z,5.38
2023-05-19T23:07:14.183Z,4.82
2023-05-19T23:09:41.476Z,4.85
2023-05-19T23:12:08.458Z,3.88
2023-05-19T23:14:36.069Z,3.28
2023-05-19T23:17:03.164Z,5.30
2023-05-19T23:19:31.982Z,4.47
2023-05-19T23:21:59.022Z,3.83
2023-05-19T23:24:26.608Z,4.55
2023-05-19T23:26:56.399Z,2.60
2023-05-19T23:29:23.707Z,3.03
2023-05-19T23:31:50.941Z,4.18
2023-05-19T23:34:18.392Z,4.95
2023-05-19T23:36:45.422Z,3.78
2023-05-19T23:39:12.654Z,5.35
2023-05-19T23:41:39.622Z,4.78
2023-05-19T23:44:08.300Z,4.10
2023-05-19T23:46:35.352Z,5.30
2023-05-19T23:49:02.747Z,4.60
2023-05-19T23:51:29.793Z,4.55
2023-05-19T23:53:57.176Z,5.85
2023-05-19T23:56:24.143Z,5.45
2023-05-19T23:58:51.654Z,8.80
